createdAt,value
2023-04-21T00:01:55.395Z,16.75
2023-04-21T00:04:22.459Z,16.83
2023-04-21T00:06:50.648Z,19.70
2023-04-21T00:09:18.815Z,18.42
2023-04-21T00:11:46.007Z,19.00
2023-04-21T00:14:13.078Z,16.52
2023-04-21T00:16:39.975Z,18.48
2023-04-21T00:19:07.378Z,18.17
2023-04-21T00:21:35.364Z,18.95
2023-04-21T00:24:02.496Z,20.77
2023-04-21T00:26:29.722Z,21.80
2023-04-21T00:28:57.209Z,21.42
2023-04-21T00:31:24.469Z,21.42
2023-04-21T00:33:51.314Z,21.38
2023-04-21T00:36:18.334Z,19.40
2023-04-21T00:38:47.087Z,21.52
2023-04-21T00:41:14.659Z,18.65
2023-04-21T00:44:01.041Z,19.63
2023-04-21T00:46:28.991Z,19.65
2023-04-21T00:48:55.788Z,20.13
2023-04-21T00:51:22.648Z,17.98
2023-04-21T00:53:51.206Z,18.73
2023-04-21T00:56:18.726Z,19.40
2023-04-21T00:58:46.215Z,17.85
2023-04-21T01:01:14.368Z,18.08
2023-04-21T01:03:46.470Z,17.60
2023-04-21T01:06:13.759Z,16.05
2023-04-21T01:08:40.908Z,16.83
2023-04-21T01:11:12.936Z,17.02
2023-04-21T01:13:41.375Z,17.17
2023-04-21T01:16:08.874Z,16.67
2023-04-21T01:18:37.002Z,14.95
2023-04-21T01:21:06.223Z,15.20
2023-04-21T01:23:34.632Z,14.60
2023-04-21T01:26:01.667Z,14.27
2023-04-21T01:28:28.570Z,15.77
2023-04-21T01:30:55.462Z,13.90
2023-04-21T01:33:22.452Z,15.45
2023-04-21T01:35:49.766Z,14.57
2023-04-21T01:38:19.876Z,15.75
2023-04-21T01:40:49.906Z,15.63
2023-04-21T01:43:19.631Z,15.98
2023-04-21T01:45:47.647Z,15.55
2023-04-21T01:48:14.565Z,15.98
2023-04-21T01:50:41.414Z,17.55
2023-04-21T01:53:10.673Z,17.60
2023-04-21T01:55:37.496Z,18.00
2023-04-21T01:58:08.074Z,17.75
2023-04-21T02:00:35.424Z,18.30
2023-04-21T02:03:04.806Z,19.30
2023-04-21T02:05:32.065Z,17.92
2023-04-21T02:07:58.888Z,17.17
2023-04-21T02:10:25.987Z,16.02
2023-04-21T02:12:52.792Z,16.17
2023-04-21T02:15:19.680Z,16.83
2023-04-21T02:17:46.684Z,16.35
2023-04-21T02:20:13.614Z,15.55
2023-04-21T02:22:40.826Z,17.10
2023-04-21T02:25:08.043Z,15.52
2023-04-21T02:27:34.853Z,14.88
2023-04-21T02:30:01.754Z,17.85
2023-04-21T02:32:29.171Z,17.45
2023-04-21T02:34:56.508Z,16.58
2023-04-21T02:37:24.643Z,17.85
2023-04-21T02:39:53.491Z,16.45
2023-04-21T02:42:20.386Z,16.95
2023-04-21T02:44:48.096Z,16.60
2023-04-21T02:47:16.519Z,18.33
2023-04-21T02:49:44.034Z,15.75
2023-04-21T02:52:12.527Z,15.88
2023-04-21T02:54:39.363Z,16.40
2023-04-21T02:57:06.384Z,16.70
2023-04-21T02:59:33.706Z,16.50
2023-04-21T03:02:01.352Z,16.23
2023-04-21T03:04:28.389Z,17.00
2023-04-21T03:06:55.534Z,17.13
2023-04-21T03:09:22.412Z,16.80
2023-04-21T03:11:49.393Z,16.77
2023-04-21T03:14:16.136Z,17.38
2023-04-21T03:16:44.938Z,17.13
2023-04-21T03:19:12.419Z,16.17
2023-04-21T03:21:39.263Z,17.20
2023-04-21T03:24:07.510Z,17.20
2023-04-21T03:26:34.484Z,16.98
2023-04-21T03:29:01.510Z,17.33
2023-04-21T03:31:28.464Z,16.50
2023-04-21T03:33:55.317Z,16.20
2023-04-21T03:36:22.172Z,15.77
2023-04-21T03:38:49.150Z,16.67
2023-04-21T03:41:17.118Z,16.67
2023-04-21T03:43:46.160Z,15.88
2023-04-21T03:46:20.818Z,15.00
2023-04-21T03:48:48.246Z,13.43
2023-04-21T03:51:15.486Z,16.38
2023-04-21T03:53:42.408Z,15.35
2023-04-21T03:56:09.724Z,16.15
2023-04-21T03:58:37.166Z,15.20
2023-04-21T04:01:07.821Z,14.77
2023-04-21T04:03:35.030Z,17.05
2023-04-21T04:06:04.066Z,17.17
2023-04-21T04:08:31.346Z,16.98
2023-04-21T04:10:58.301Z,15.65
2023-04-21T04:13:26.533Z,15.57
2023-04-21T04:15:54.019Z,15.20
2023-04-21T04:18:21.308Z,15.07
2023-04-21T04:20:48.567Z,14.65
2023-04-21T04:23:15.444Z,15.23
2023-04-21T04:25:42.822Z,15.65
2023-04-21T04:28:09.610Z,15.75
2023-04-21T04:30:37.042Z,14.15
2023-04-21T04:33:04.081Z,15.15
2023-04-21T04:35:30.949Z,16.90
2023-04-21T04:37:59.141Z,15.95
2023-04-21T04:40:26.135Z,17.33
2023-04-21T04:42:52.917Z,15.32
2023-04-21T04:45:21.760Z,16.10
2023-04-21T04:47:49.962Z,15.43
2023-04-21T04:50:16.965Z,15.50
2023-04-21T04:52:46.892Z,15.30
2023-04-21T04:55:14.397Z,17.15
2023-04-21T04:57:41.479Z,15.05
2023-04-21T05:00:14.473Z,16.13
2023-04-21T05:02:41.763Z,15.45
2023-04-21T05:05:09.068Z,16.17
2023-04-21T05:07:36.485Z,14.73
2023-04-21T05:10:04.594Z,15.45
2023-04-21T05:12:34.644Z,14.00
2023-04-21T05:15:01.600Z,12.98
2023-04-21T05:17:30.945Z,15.60
2023-04-21T05:19:57.824Z,14.25
2023-04-21T05:22:25.067Z,13.77
2023-04-21T05:24:52.828Z,14.38
2023-04-21T05:27:19.712Z,13.57
2023-04-21T05:29:46.761Z,14.60
2023-04-21T05:32:14.388Z,14.02
2023-04-21T05:34:41.217Z,10.70
2023-04-21T05:37:10.224Z,12.02
2023-04-21T05:39:36.934Z,10.40
2023-04-21T05:42:03.998Z,9.10
2023-04-21T05:44:30.950Z,9.30
2023-04-21T05:46:57.711Z,11.07
2023-04-21T05:49:24.609Z,10.55
2023-04-21T05:51:51.389Z,11.02
2023-04-21T05:54:18.596Z,10.93
2023-04-21T05:56:47.309Z,9.63
2023-04-21T05:59:14.406Z,9.43
2023-04-21T06:01:41.391Z,10.00
2023-04-21T06:04:08.322Z,10.80
2023-04-21T06:06:35.302Z,9.68
2023-04-21T06:09:02.106Z,9.48
2023-04-21T06:11:28.907Z,9.70
2023-04-21T06:13:58.414Z,9.38
2023-04-21T06:16:25.647Z,8.95
2023-04-21T06:18:52.400Z,9.13
2023-04-21T06:21:19.129Z,7.35
2023-04-21T06:23:46.145Z,7.97
2023-04-21T06:26:13.768Z,8.02
2023-04-21T06:28:40.801Z,8.52
2023-04-21T06:31:09.725Z,8.18
2023-04-21T06:33:36.732Z,7.70
2023-04-21T06:36:03.726Z,6.97
2023-04-21T06:38:30.542Z,7.65
2023-04-21T06:40:57.666Z,6.68
2023-04-21T06:43:24.528Z,6.40
2023-04-21T06:45:51.315Z,6.50
2023-04-21T06:48:18.111Z,6.45
2023-04-21T06:50:46.438Z,5.20
2023-04-21T06:53:13.481Z,5.82
2023-04-21T06:55:40.467Z,6.85
2023-04-21T06:58:07.282Z,6.93
2023-04-21T07:00:34.163Z,6.15
2023-04-21T07:03:01.127Z,5.53
2023-04-21T07:05:28.592Z,6.63
2023-04-21T07:07:59.627Z,6.13
2023-04-21T07:10:27.050Z,6.65
2023-04-21T07:12:54.503Z,5.50
2023-04-21T07:15:21.705Z,5.22
2023-04-21T07:17:49.123Z,4.70
2023-04-21T07:20:17.517Z,4.85
2023-04-21T07:22:44.436Z,4.82
2023-04-21T07:25:12.039Z,5.70
2023-04-21T07:27:39.404Z,5.38
2023-04-21T07:30:07.591Z,6.00
2023-04-21T07:32:35.130Z,5.30
2023-04-21T07:35:02.934Z,5.45
2023-04-21T07:37:30.800Z,5.28
2023-04-21T07:39:57.548Z,5.40
2023-04-21T07:42:25.302Z,4.82
2023-04-21T07:44:53.615Z,5.00
2023-04-21T07:47:20.580Z,4.90
2023-04-21T07:49:47.627Z,5.55
2023-04-21T07:52:14.421Z,4.88
2023-04-21T07:54:41.465Z,5.72
2023-04-21T07:57:08.424Z,5.60
2023-04-21T07:59:35.170Z,4.75
2023-04-21T08:02:02.157Z,4.70
2023-04-21T08:04:29.264Z,4.88
2023-04-21T08:07:01.970Z,5.65
2023-04-21T08:09:31.610Z,4.63
2023-04-21T08:11:59.152Z,4.20
2023-04-21T08:14:27.097Z,4.90
2023-04-21T08:16:56.780Z,4.13
2023-04-21T08:19:24.279Z,4.22
2023-04-21T08:21:51.235Z,4.50
2023-04-21T08:24:18.935Z,5.10
2023-04-21T08:26:45.982Z,4.88
2023-04-21T08:29:14.162Z,4.70
2023-04-21T08:31:41.557Z,5.25
2023-04-21T08:34:09.152Z,4.80
2023-04-21T08:36:35.984Z,4.60
2023-04-21T08:39:02.802Z,4.57
2023-04-21T08:41:29.654Z,4.95
2023-04-21T08:43:56.509Z,4.75
2023-04-21T08:46:23.696Z,4.60
2023-04-21T08:48:52.258Z,4.88
2023-04-21T08:51:23.994Z,4.82
2023-04-21T08:53:51.825Z,4.57
2023-04-21T08:56:18.825Z,4.38
2023-04-21T08:58:45.954Z,5.45
2023-04-21T09:01:12.747Z,4.50
2023-04-21T09:03:39.715Z,4.45
2023-04-21T09:06:09.649Z,4.57
2023-04-21T09:08:43.998Z,4.95
2023-04-21T09:11:14.503Z,4.40
2023-04-21T09:13:43.923Z,4.70
2023-04-21T09:16:22.256Z,4.53
2023-04-21T09:18:50.506Z,4.20
2023-04-21T09:21:19.859Z,4.47
2023-04-21T09:23:48.968Z,5.03
2023-04-21T09:26:17.662Z,4.32
2023-04-21T09:28:45.674Z,4.28
2023-04-21T09:31:16.531Z,3.70
2023-04-21T09:33:57.851Z,4.15
2023-04-21T09:36:29.100Z,3.97
2023-04-21T09:39:29.125Z,3.42
2023-04-21T09:41:50.599Z,3.25
2023-04-21T09:44:18.410Z,3.55
2023-04-21T09:46:50.324Z,3.10
2023-04-21T09:49:18.419Z,3.70
2023-04-21T09:56:58.038Z,3.35
2023-04-21T09:59:29.184Z,3.03
2023-04-21T10:01:59.476Z,3.33
2023-04-21T10:04:28.883Z,3.08
2023-04-21T10:06:56.618Z,3.42
2023-04-21T10:09:26.915Z,2.80
2023-04-21T10:11:55.527Z,2.95
2023-04-21T10:14:22.645Z,2.50
2023-04-21T10:17:07.267Z,2.70
2023-04-21T10:19:39.627Z,2.47
2023-04-21T10:22:09.216Z,2.35
2023-04-21T10:24:40.316Z,2.13
2023-04-21T10:27:11.563Z,2.80
2023-04-21T10:29:52.390Z,2.10
2023-04-21T10:33:04.972Z,2.40
2023-04-21T10:35:58.891Z,2.40
2023-04-21T10:38:42.959Z,2.45
2023-04-21T10:41:28.098Z,2.13
2023-04-21T10:43:58.415Z,2.30
2023-04-21T10:46:36.185Z,2.30
2023-04-21T10:49:12.983Z,2.10
2023-04-21T10:52:00.526Z,2.40
2023-04-21T10:54:29.896Z,2.03
2023-04-21T10:56:58.667Z,2.00
2023-04-21T10:59:26.888Z,1.67
2023-04-21T11:01:54.516Z,2.00
2023-04-21T11:04:23.484Z,1.70
2023-04-21T11:07:06.895Z,1.73
2023-04-21T11:09:34.666Z,2.00
2023-04-21T11:12:04.527Z,1.73
2023-04-21T11:14:31.514Z,1.40
2023-04-21T11:16:58.683Z,1.30
2023-04-21T11:19:26.075Z,1.60
2023-04-21T11:21:55.862Z,1.48
2023-04-21T11:24:22.735Z,1.45
2023-04-21T11:26:49.623Z,1.33
2023-04-21T11:29:17.275Z,1.40
2023-04-21T11:31:46.645Z,1.38
2023-04-21T11:34:15.366Z,1.60
2023-04-21T11:36:46.395Z,1.55
2023-04-21T11:39:15.871Z,1.48
2023-04-21T11:41:45.426Z,1.60
2023-04-21T11:44:13.810Z,1.25
2023-04-21T11:46:47.386Z,1.50
2023-04-21T11:49:17.328Z,1.25
2023-04-21T11:51:45.008Z,1.30
2023-04-21T11:54:13.436Z,1.45
2023-04-21T11:56:42.707Z,0.80
2023-04-21T11:59:10.986Z,0.93
2023-04-21T12:01:48.988Z,0.93
2023-04-21T12:04:17.674Z,0.70
2023-04-21T12:06:56.996Z,0.57
2023-04-21T12:09:23.860Z,0.60
2023-04-21T12:11:55.486Z,0.45
2023-04-21T12:14:23.645Z,0.50
2023-04-21T12:16:55.296Z,0.50
2023-04-21T12:19:23.881Z,0.73
2023-04-21T12:21:56.637Z,0.50
2023-04-21T12:24:23.469Z,0.60
2023-04-21T12:26:50.782Z,0.40
2023-04-21T12:29:17.520Z,0.52
2023-04-21T12:31:44.314Z,0.50
2023-04-21T12:34:11.180Z,0.40
2023-04-21T12:36:38.740Z,0.50
2023-04-21T12:39:06.370Z,0.50
2023-04-21T12:41:34.956Z,0.47
2023-04-21T12:44:01.884Z,0.50
2023-04-21T12:46:29.637Z,0.52
2023-04-21T12:48:57.281Z,0.55
2023-04-21T12:51:24.726Z,0.55
2023-04-21T12:53:52.458Z,0.45
2023-04-21T12:56:23.497Z,0.63
2023-04-21T12:58:54.359Z,0.50
2023-04-21T13:01:22.408Z,0.50
2023-04-21T13:03:49.903Z,0.65
2023-04-21T13:06:17.710Z,0.63
2023-04-21T13:08:44.757Z,0.80
2023-04-21T13:11:12.123Z,0.57
2023-04-21T13:13:39.750Z,0.60
2023-04-21T13:16:06.882Z,0.40
2023-04-21T13:18:42.926Z,0.52
2023-04-21T13:21:09.732Z,0.50
2023-04-21T13:23:36.484Z,0.50
2023-04-21T13:26:03.963Z,0.73
2023-04-21T13:28:31.086Z,0.55
2023-04-21T13:30:58.039Z,0.60
2023-04-21T13:33:30.632Z,0.70
2023-04-21T13:35:58.288Z,0.70
2023-04-21T13:38:25.056Z,0.60
2023-04-21T13:41:02.616Z,0.50
2023-04-21T13:43:29.423Z,0.73
2023-04-21T13:48:38.466Z,0.60
2023-04-21T13:51:08.549Z,0.40
2023-04-21T13:53:36.155Z,0.40
2023-04-21T13:56:02.918Z,0.70
2023-04-21T13:58:31.542Z,0.70
2023-04-21T14:00:58.781Z,0.50
2023-04-21T14:03:25.872Z,0.57
2023-04-21T14:05:53.095Z,0.70
2023-04-21T14:08:20.640Z,0.90
2023-04-21T14:10:47.969Z,0.65
2023-04-21T14:13:33.166Z,0.60
2023-04-21T14:16:02.613Z,0.70
2023-04-21T14:18:29.503Z,0.80
2023-04-21T14:20:56.642Z,0.60
2023-04-21T14:23:23.445Z,0.50
2023-04-21T14:25:55.098Z,0.70
2023-04-21T14:28:22.260Z,0.52
2023-04-21T14:30:49.481Z,0.57
2023-04-21T14:33:19.603Z,0.63
2023-04-21T14:35:46.654Z,0.70
2023-04-21T14:38:13.740Z,0.50
2023-04-21T14:40:40.565Z,0.50
2023-04-21T14:43:07.437Z,0.40
2023-04-21T14:45:34.289Z,0.90
2023-04-21T14:48:01.104Z,1.00
2023-04-21T14:50:28.255Z,0.90
2023-04-21T14:52:55.084Z,0.85
2023-04-21T14:55:28.059Z,0.90
2023-04-21T14:57:54.916Z,0.50
2023-04-21T15:00:23.673Z,0.52
2023-04-21T15:02:50.624Z,0.40
2023-04-21T15:05:18.662Z,0.50
2023-04-21T15:07:45.715Z,1.40
2023-04-21T15:10:13.236Z,0.73
2023-04-21T15:12:41.750Z,0.60
2023-04-21T15:15:08.946Z,0.82
2023-04-21T15:17:36.056Z,0.70
2023-04-21T15:20:03.926Z,0.70
2023-04-21T15:22:30.853Z,0.65
2023-04-21T15:24:57.857Z,0.70
2023-04-21T15:27:24.699Z,0.60
2023-04-21T15:29:51.535Z,0.70
2023-04-21T15:32:18.636Z,0.60
2023-04-21T15:34:45.518Z,0.50
2023-04-21T15:37:13.168Z,0.70
2023-04-21T15:39:46.318Z,0.90
2023-04-21T15:42:18.805Z,0.77
2023-04-21T15:44:48.568Z,0.90
2023-04-21T15:47:18.320Z,0.73
2023-04-21T15:49:45.425Z,0.90
2023-04-21T15:52:12.488Z,1.00
2023-04-21T15:54:39.624Z,0.75
2023-04-21T15:57:06.895Z,0.75
2023-04-21T15:59:33.697Z,0.50
2023-04-21T16:02:00.600Z,0.80
2023-04-21T16:04:28.366Z,0.70
2023-04-21T16:06:56.535Z,1.40
2023-04-21T16:09:23.794Z,0.73
2023-04-21T16:11:51.851Z,0.50
2023-04-21T16:14:21.100Z,0.70
2023-04-21T16:16:47.933Z,0.50
2023-04-21T16:19:18.594Z,0.60
2023-04-21T16:21:45.751Z,0.60
2023-04-21T16:24:12.759Z,0.70
2023-04-21T16:26:39.902Z,2.00
2023-04-21T16:29:06.704Z,1.90
2023-04-21T16:31:43.086Z,0.90
2023-04-21T16:34:10.359Z,0.80
2023-04-21T16:36:37.350Z,0.90
2023-04-21T16:39:04.431Z,1.40
2023-04-21T16:41:31.751Z,1.10
2023-04-21T16:43:58.587Z,0.85
2023-04-21T16:46:25.690Z,0.80
2023-04-21T16:48:52.955Z,1.05
2023-04-21T16:51:19.862Z,0.95
2023-04-21T16:53:46.893Z,1.40
2023-04-21T16:56:15.040Z,0.90
2023-04-21T16:58:41.731Z,0.93
2023-04-21T17:01:08.573Z,0.77
2023-04-21T17:03:35.473Z,3.30
2023-04-21T17:06:04.982Z,0.90
2023-04-21T17:08:32.466Z,1.33
2023-04-21T17:11:00.207Z,1.20
2023-04-21T17:13:27.417Z,1.00
2023-04-21T17:15:54.439Z,1.23
2023-04-21T17:18:21.344Z,0.90
2023-04-21T17:20:48.108Z,1.02
2023-04-21T17:23:14.962Z,1.20
2023-04-21T17:25:41.779Z,1.40
2023-04-21T17:28:08.597Z,1.10
2023-04-21T17:30:36.321Z,1.10
2023-04-21T17:33:15.372Z,1.50
2023-04-21T17:35:55.732Z,0.85
2023-04-21T17:38:29.654Z,1.55
2023-04-21T17:40:56.704Z,1.40
2023-04-21T17:43:23.618Z,1.45
2023-04-21T17:45:51.449Z,1.52
2023-04-21T17:48:18.611Z,1.50
2023-04-21T17:50:45.833Z,1.90
2023-04-21T17:53:12.654Z,1.70
2023-04-21T17:55:39.914Z,1.23
2023-04-21T17:58:07.180Z,1.63
2023-04-21T18:00:34.930Z,1.90
2023-04-21T18:03:02.311Z,2.53
2023-04-21T18:05:29.814Z,3.40
2023-04-21T18:07:56.924Z,3.60
2023-04-21T18:10:23.727Z,2.80
2023-04-21T18:12:50.766Z,3.00
2023-04-21T18:15:17.890Z,3.90
2023-04-21T18:17:45.037Z,3.15
2023-04-21T18:20:13.756Z,4.60
2023-04-21T18:22:43.786Z,3.60
2023-04-21T18:25:14.054Z,3.40
2023-04-21T18:27:41.228Z,3.20
2023-04-21T18:30:09.632Z,2.65
2023-04-21T18:32:36.929Z,4.70
2023-04-21T18:35:09.089Z,2.47
2023-04-21T18:37:36.097Z,2.28
2023-04-21T18:40:04.630Z,2.63
2023-04-21T18:42:31.466Z,2.30
2023-04-21T18:44:59.165Z,4.07
2023-04-21T18:47:26.415Z,2.03
2023-04-21T18:49:53.252Z,2.00
2023-04-21T18:52:20.060Z,2.13
2023-04-21T18:54:46.801Z,2.58
2023-04-21T18:57:13.647Z,3.13
2023-04-21T18:59:40.657Z,3.38
2023-04-21T19:02:09.321Z,4.57
2023-04-21T19:04:37.029Z,4.40
2023-04-21T19:07:04.889Z,4.45
2023-04-21T19:09:31.617Z,4.57
2023-04-21T19:11:58.511Z,3.90
2023-04-21T19:14:25.416Z,2.85
2023-04-21T19:16:53.063Z,2.28
2023-04-21T19:19:21.978Z,2.40
2023-04-21T19:21:50.388Z,3.22
2023-04-21T19:24:17.186Z,4.22
2023-04-21T19:26:44.005Z,6.68
2023-04-21T19:29:14.776Z,7.88
2023-04-21T19:31:42.054Z,6.60
2023-04-21T19:34:08.886Z,4.25
2023-04-21T19:36:35.728Z,2.85
2023-04-21T19:39:02.580Z,4.68
2023-04-21T19:41:29.371Z,5.07
2023-04-21T19:43:56.762Z,3.70
2023-04-21T19:46:23.644Z,2.72
2023-04-21T19:48:50.710Z,2.47
2023-04-21T19:51:17.494Z,2.25
2023-04-21T19:53:46.411Z,1.73
2023-04-21T19:56:14.968Z,1.80
2023-04-21T19:58:41.740Z,2.75
2023-04-21T20:01:08.579Z,2.65
2023-04-21T20:03:35.593Z,2.63
2023-04-21T20:06:04.851Z,3.00
2023-04-21T20:08:31.906Z,4.53
2023-04-21T20:10:58.740Z,3.50
2023-04-21T20:13:25.689Z,2.45
2023-04-21T20:15:52.565Z,3.03
2023-04-21T20:18:19.625Z,2.47
2023-04-21T20:20:46.744Z,2.88
2023-04-21T20:23:13.666Z,3.42
2023-04-21T20:25:40.603Z,3.38
2023-04-21T20:28:07.465Z,3.40
2023-04-21T20:30:37.352Z,3.25
2023-04-21T20:33:04.380Z,3.67
2023-04-21T20:35:33.438Z,3.53
2023-04-21T20:38:01.348Z,3.50
2023-04-21T20:40:28.244Z,3.63
2023-04-21T20:42:55.404Z,3.35
2023-04-21T20:45:22.433Z,3.03
2023-04-21T20:47:49.605Z,3.20
2023-04-21T20:50:16.722Z,2.92
2023-04-21T20:52:43.587Z,2.80
2023-04-21T20:55:11.161Z,2.83
2023-04-21T20:57:38.243Z,3.10
2023-04-21T21:00:06.065Z,3.35
2023-04-21T21:02:32.958Z,3.00
2023-04-21T21:04:59.909Z,3.22
2023-04-21T21:07:26.667Z,2.90
2023-04-21T21:09:53.537Z,2.50
2023-04-21T21:12:20.290Z,2.53
2023-04-21T21:14:47.115Z,2.28
2023-04-21T21:17:16.538Z,2.55
2023-04-21T21:19:43.826Z,2.50
2023-04-21T21:22:10.693Z,2.53
2023-04-21T21:24:37.461Z,2.50
2023-04-21T21:27:04.374Z,2.70
2023-04-21T21:29:31.130Z,2.72
2023-04-21T21:32:01.007Z,3.28
2023-04-21T21:34:28.064Z,3.92
2023-04-21T21:36:55.187Z,3.67
2023-04-21T21:39:21.984Z,4.05
2023-04-21T21:41:48.733Z,3.65
2023-04-21T21:44:15.519Z,4.45
2023-04-21T21:46:42.608Z,4.80
2023-04-21T21:49:10.357Z,3.90
2023-04-21T21:51:37.080Z,4.25
2023-04-21T21:54:03.872Z,4.70
2023-04-21T21:56:30.804Z,3.45
2023-04-21T21:58:57.922Z,3.33
2023-04-21T22:01:24.955Z,3.17
2023-04-21T22:03:53.787Z,2.58
2023-04-21T22:06:26.465Z,2.85
2023-04-21T22:08:53.327Z,2.42
2023-04-21T22:11:20.689Z,2.80
2023-04-21T22:13:47.468Z,2.63
2023-04-21T22:16:14.434Z,2.55
2023-04-21T22:18:41.332Z,2.97
2023-04-21T22:21:08.726Z,2.80
2023-04-21T22:23:36.219Z,2.80
2023-04-21T22:26:03.331Z,3.15
2023-04-21T22:28:30.157Z,2.97
2023-04-21T22:30:57.032Z,3.00
2023-04-21T22:33:24.268Z,3.17
2023-04-21T22:35:51.041Z,3.85
2023-04-21T22:38:17.756Z,3.70
2023-04-21T22:40:44.538Z,3.42
2023-04-21T22:43:11.449Z,4.35
2023-04-21T22:45:45.617Z,3.47
2023-04-21T22:48:14.081Z,2.95
2023-04-21T22:50:44.824Z,3.65
2023-04-21T22:53:13.370Z,3.75
2023-04-21T22:55:40.339Z,3.67
2023-04-21T22:58:07.154Z,3.58
2023-04-21T23:00:34.394Z,3.75
2023-04-21T23:03:01.559Z,4.00
2023-04-21T23:05:29.912Z,4.43
2023-04-21T23:07:56.640Z,4.07
2023-04-21T23:10:23.593Z,3.97
2023-04-21T23:12:50.398Z,4.28
2023-04-21T23:15:17.518Z,4.30
2023-04-21T23:17:45.267Z,4.50
2023-04-21T23:20:12.455Z,4.60
2023-04-21T23:22:39.245Z,3.58
2023-04-21T23:25:06.630Z,3.97
2023-04-21T23:27:33.523Z,3.70
2023-04-21T23:30:00.358Z,3.78
2023-04-21T23:32:27.281Z,4.10
2023-04-21T23:34:54.378Z,3.58
2023-04-21T23:37:21.379Z,3.92
2023-04-21T23:39:48.106Z,3.80
2023-04-21T23:42:14.887Z,3.22
2023-04-21T23:44:41.644Z,3.47
2023-04-21T23:47:08.414Z,3.28
2023-04-21T23:49:35.150Z,3.63
2023-04-21T23:52:01.951Z,3.40
2023-04-21T23:54:28.755Z,3.45
2023-04-21T23:56:55.824Z,4.43
2023-04-21T23:59:22.751Z,3.90
